createdAt,value
2019-03-24T00:01:25.835Z,9.44
2019-03-24T00:03:56.842Z,9.28
2019-03-24T00:06:27.635Z,9.56
2019-03-24T00:08:58.407Z,9.54
2019-03-24T00:11:29.135Z,9.39
2019-03-24T00:13:59.907Z,9.44
2019-03-24T00:16:30.711Z,9.62
2019-03-24T00:19:01.838Z,9.07
2019-03-24T00:21:32.568Z,9.29
2019-03-24T00:24:03.454Z,9.49
2019-03-24T00:26:35.353Z,9.67
2019-03-24T00:29:06.135Z,9.33
2019-03-24T00:31:36.899Z,9.67
2019-03-24T00:34:07.759Z,9.34
2019-03-24T00:36:38.540Z,9.67
2019-03-24T00:39:09.400Z,9.64
2019-03-24T00:41:40.161Z,9.96
2019-03-24T00:44:10.943Z,9.60
2019-03-24T00:46:41.739Z,9.67
2019-03-24T00:49:12.633Z,10.00
2019-03-24T00:51:44.609Z,10.20
2019-03-24T00:54:15.410Z,10.13
2019-03-24T00:56:46.221Z,9.72
2019-03-24T00:59:16.995Z,10.02
2019-03-24T01:01:48.793Z,9.97
2019-03-24T01:04:19.643Z,9.89
2019-03-24T01:06:50.763Z,9.95
2019-03-24T01:09:21.553Z,9.85
2019-03-24T01:11:52.339Z,9.60
2019-03-24T01:14:23.115Z,9.92
2019-03-24T01:16:53.887Z,9.58
2019-03-24T01:19:24.654Z,9.76
2019-03-24T01:21:55.406Z,9.89
2019-03-24T01:24:26.372Z,10.05
2019-03-24T01:26:57.156Z,10.04
2019-03-24T01:29:28.030Z,10.06
2019-03-24T01:31:58.769Z,10.05
2019-03-24T01:34:29.526Z,9.93
2019-03-24T01:37:00.323Z,9.88
2019-03-24T01:39:31.108Z,9.40
2019-03-24T01:42:01.900Z,9.42
2019-03-24T01:44:32.871Z,9.50
2019-03-24T01:47:03.711Z,9.72
2019-03-24T01:49:34.537Z,9.84
2019-03-24T01:52:05.390Z,9.91
2019-03-24T01:54:36.421Z,9.90
2019-03-24T01:57:07.211Z,10.02
2019-03-24T01:59:37.998Z,9.99
2019-03-24T02:02:08.719Z,10.05
2019-03-24T02:04:39.687Z,9.83
2019-03-24T02:07:10.475Z,9.86
2019-03-24T02:09:41.261Z,9.60
2019-03-24T02:12:11.984Z,9.32
2019-03-24T02:14:42.784Z,9.65
2019-03-24T02:17:13.598Z,9.58
2019-03-24T02:19:44.502Z,9.55
2019-03-24T02:22:15.257Z,9.62
2019-03-24T02:24:46.196Z,9.74
2019-03-24T02:27:17.031Z,9.85
2019-03-24T02:29:47.898Z,9.93
2019-03-24T02:32:18.651Z,10.00
2019-03-24T02:34:49.423Z,9.89
2019-03-24T02:37:20.211Z,9.96
2019-03-24T02:39:50.966Z,9.54
2019-03-24T02:42:21.757Z,9.46
2019-03-24T02:44:52.551Z,9.59
2019-03-24T02:47:23.355Z,9.83
2019-03-24T02:49:54.390Z,9.72
2019-03-24T02:52:25.144Z,9.76
2019-03-24T02:54:55.982Z,9.62
2019-03-24T02:57:26.803Z,9.56
2019-03-24T02:59:57.588Z,9.29
2019-03-24T03:02:28.342Z,9.52
2019-03-24T03:04:59.183Z,9.69
2019-03-24T03:07:29.998Z,9.83
2019-03-24T03:10:00.754Z,9.84
2019-03-24T03:12:33.046Z,9.59
2019-03-24T03:15:03.856Z,9.29
2019-03-24T03:17:34.721Z,9.45
2019-03-24T03:20:07.303Z,9.50
2019-03-24T03:22:38.066Z,9.69
2019-03-24T03:25:10.144Z,9.56
2019-03-24T03:27:40.941Z,9.64
2019-03-24T03:30:11.973Z,9.69
2019-03-24T03:32:42.740Z,9.47
2019-03-24T03:35:13.794Z,9.39
2019-03-24T03:37:44.585Z,9.48
2019-03-24T03:40:15.366Z,9.34
2019-03-24T03:42:46.100Z,9.23
2019-03-24T03:45:24.228Z,9.30
2019-03-24T03:47:55.066Z,9.15
2019-03-24T03:50:26.021Z,9.06
2019-03-24T03:52:56.826Z,9.10
2019-03-24T03:55:27.647Z,9.19
2019-03-24T03:57:58.433Z,9.11
2019-03-24T04:00:36.449Z,9.10
2019-03-24T04:03:07.678Z,9.24
2019-03-24T04:05:38.660Z,9.27
2019-03-24T04:08:09.514Z,9.48
2019-03-24T04:10:40.250Z,9.28
2019-03-24T04:13:11.029Z,9.27
2019-03-24T04:15:41.841Z,9.16
2019-03-24T04:18:12.606Z,9.12
2019-03-24T04:20:44.640Z,9.15
2019-03-24T04:23:15.501Z,8.92
2019-03-24T04:25:46.543Z,9.05
2019-03-24T04:28:17.349Z,9.01
2019-03-24T04:30:48.131Z,9.02
2019-03-24T04:33:18.857Z,8.87
2019-03-24T04:35:49.692Z,9.01
2019-03-24T04:38:20.531Z,8.84
2019-03-24T04:40:51.326Z,8.71
2019-03-24T04:43:22.103Z,8.77
2019-03-24T04:45:52.867Z,8.95
2019-03-24T04:48:23.643Z,8.79
2019-03-24T04:50:54.445Z,8.90
2019-03-24T04:53:25.207Z,8.85
2019-03-24T04:55:56.084Z,8.86
2019-03-24T04:58:27.108Z,8.70
2019-03-24T05:00:58.034Z,8.63
2019-03-24T05:03:28.826Z,8.70
2019-03-24T05:06:00.893Z,8.71
2019-03-24T05:08:31.847Z,8.78
2019-03-24T05:11:02.586Z,8.83
2019-03-24T05:13:33.339Z,8.83
2019-03-24T05:16:04.120Z,8.71
2019-03-24T05:18:34.939Z,8.87
2019-03-24T05:21:06.028Z,8.83
2019-03-24T05:23:37.688Z,8.87
2019-03-24T05:26:08.956Z,8.75
2019-03-24T05:28:39.768Z,8.87
2019-03-24T05:31:10.554Z,8.63
2019-03-24T05:33:41.343Z,8.81
2019-03-24T05:36:12.264Z,8.87
2019-03-24T05:38:43.088Z,8.85
2019-03-24T05:41:13.868Z,8.74
2019-03-24T05:43:45.764Z,8.71
2019-03-24T05:46:16.600Z,8.71
2019-03-24T05:48:47.719Z,8.63
2019-03-24T05:51:18.685Z,8.65
2019-03-24T05:53:49.521Z,8.68
2019-03-24T05:56:20.295Z,8.93
2019-03-24T05:58:51.081Z,8.58
2019-03-24T06:01:21.873Z,8.58
2019-03-24T06:03:52.620Z,8.53
2019-03-24T06:06:23.471Z,8.38
2019-03-24T06:08:54.844Z,8.36
2019-03-24T06:11:25.647Z,8.56
2019-03-24T06:13:56.401Z,8.38
2019-03-24T06:16:27.290Z,8.49
2019-03-24T06:18:58.038Z,8.50
2019-03-24T06:21:29.010Z,8.60
2019-03-24T06:23:59.740Z,8.70
2019-03-24T06:26:30.777Z,8.81
2019-03-24T06:29:01.510Z,8.84
2019-03-24T06:31:32.337Z,8.92
2019-03-24T06:34:03.116Z,9.05
2019-03-24T06:36:33.959Z,9.09
2019-03-24T06:39:05.553Z,8.92
2019-03-24T06:41:36.368Z,9.01
2019-03-24T06:44:07.605Z,9.12
2019-03-24T06:46:39.235Z,9.01
2019-03-24T06:49:10.003Z,9.00
2019-03-24T06:51:40.857Z,8.93
2019-03-24T06:54:11.629Z,8.64
2019-03-24T06:56:42.413Z,8.93
2019-03-24T06:59:13.141Z,8.73
2019-03-24T07:01:43.961Z,8.66
2019-03-24T07:04:14.836Z,8.83
2019-03-24T07:06:45.840Z,9.00
2019-03-24T07:09:16.600Z,9.03
2019-03-24T07:11:47.413Z,9.04
2019-03-24T07:14:18.176Z,9.14
2019-03-24T07:16:48.957Z,8.87
2019-03-24T07:19:19.716Z,8.98
2019-03-24T07:21:50.568Z,9.02
2019-03-24T07:24:21.328Z,9.09
2019-03-24T07:26:52.195Z,8.92
2019-03-24T07:29:22.929Z,9.03
2019-03-24T07:31:53.827Z,9.02
2019-03-24T07:34:24.599Z,8.89
2019-03-24T07:36:55.584Z,9.16
2019-03-24T07:39:26.319Z,9.13
2019-03-24T07:41:57.176Z,9.31
2019-03-24T07:44:28.011Z,9.29
2019-03-24T07:46:58.788Z,9.12
2019-03-24T07:49:29.551Z,9.15
2019-03-24T07:52:00.581Z,9.18
2019-03-24T07:54:31.353Z,8.86
2019-03-24T07:57:02.143Z,8.94
2019-03-24T07:59:32.925Z,8.97
2019-03-24T08:02:03.806Z,8.95
2019-03-24T08:04:34.583Z,8.87
2019-03-24T08:07:05.577Z,8.98
2019-03-24T08:09:37.230Z,8.94
2019-03-24T08:12:09.298Z,8.81
2019-03-24T08:14:40.107Z,8.94
2019-03-24T08:17:10.934Z,8.93
2019-03-24T08:19:41.666Z,9.14
2019-03-24T08:22:12.666Z,9.35
2019-03-24T08:24:43.478Z,9.64
2019-03-24T08:27:14.520Z,9.31
2019-03-24T08:29:45.299Z,9.41
2019-03-24T08:32:16.197Z,9.75
2019-03-24T08:34:48.448Z,9.24
2019-03-24T08:37:19.380Z,9.37
2019-03-24T08:39:50.259Z,9.48
2019-03-24T08:42:21.217Z,9.80
2019-03-24T08:44:52.020Z,9.90
2019-03-24T08:47:22.818Z,9.99
2019-03-24T08:49:53.620Z,9.59
2019-03-24T08:52:24.989Z,9.82
2019-03-24T08:54:55.727Z,9.66
2019-03-24T08:57:26.509Z,9.75
2019-03-24T08:59:57.244Z,9.80
2019-03-24T09:02:28.098Z,10.14
2019-03-24T09:04:58.848Z,10.81
2019-03-24T09:07:29.685Z,10.59
2019-03-24T09:10:02.513Z,10.38
2019-03-24T09:12:33.454Z,10.26
2019-03-24T09:15:04.796Z,10.06
2019-03-24T09:17:35.604Z,10.01
2019-03-24T09:20:07.368Z,10.42
2019-03-24T09:22:38.325Z,10.32
2019-03-24T09:25:12.048Z,11.18
2019-03-24T09:27:43.028Z,10.96
2019-03-24T09:30:33.479Z,11.06
2019-03-24T09:33:04.546Z,10.73
2019-03-24T09:35:35.503Z,10.79
2019-03-24T09:38:06.707Z,11.19
2019-03-24T09:40:37.617Z,11.46
2019-03-24T09:43:08.831Z,11.52
2019-03-24T09:45:39.709Z,11.38
2019-03-24T09:48:11.725Z,11.14
2019-03-24T09:50:44.841Z,11.24
2019-03-24T09:53:15.832Z,11.23
2019-03-24T09:55:46.618Z,11.28
2019-03-24T09:58:17.436Z,11.40
2019-03-24T10:00:48.213Z,10.89
2019-03-24T10:03:19.063Z,10.89
2019-03-24T10:05:51.008Z,11.20
2019-03-24T10:08:29.822Z,11.33
2019-03-24T10:11:00.586Z,11.70
2019-03-24T10:13:31.565Z,11.16
2019-03-24T10:16:02.387Z,10.79
2019-03-24T10:18:34.613Z,10.93
2019-03-24T10:21:07.156Z,11.11
2019-03-24T10:23:37.977Z,11.39
2019-03-24T10:26:08.705Z,11.43
2019-03-24T10:28:40.158Z,10.90
2019-03-24T10:31:11.068Z,10.94
2019-03-24T10:33:41.951Z,10.63
2019-03-24T10:36:12.790Z,11.05
2019-03-24T10:38:43.760Z,10.81
2019-03-24T10:41:14.536Z,10.89
2019-03-24T10:43:45.315Z,10.83
2019-03-24T10:46:16.154Z,10.50
2019-03-24T10:48:48.068Z,10.45
2019-03-24T10:51:18.905Z,10.56
2019-03-24T10:53:49.877Z,10.90
2019-03-24T10:56:20.646Z,11.23
2019-03-24T10:58:51.507Z,11.05
2019-03-24T11:01:22.396Z,11.11
2019-03-24T11:03:53.257Z,10.83
2019-03-24T11:06:24.447Z,10.92
2019-03-24T11:08:55.290Z,10.81
2019-03-24T11:11:26.438Z,10.67
2019-03-24T11:13:57.273Z,10.62
2019-03-24T11:16:28.111Z,10.92
2019-03-24T11:18:59.200Z,11.28
2019-03-24T11:21:30.146Z,10.93
2019-03-24T11:24:01.106Z,10.76
2019-03-24T11:26:31.984Z,11.23
2019-03-24T11:29:04.114Z,11.16
2019-03-24T11:31:34.847Z,11.33
2019-03-24T11:34:05.723Z,11.78
2019-03-24T11:36:36.703Z,11.25
2019-03-24T11:39:09.080Z,11.42
2019-03-24T11:41:39.832Z,11.36
2019-03-24T11:44:10.797Z,11.11
2019-03-24T11:46:41.929Z,11.39
2019-03-24T11:49:17.148Z,11.25
2019-03-24T11:51:47.900Z,11.60
2019-03-24T11:54:18.813Z,11.84
2019-03-24T11:56:49.547Z,12.35
2019-03-24T11:59:20.432Z,11.89
2019-03-24T12:01:51.212Z,11.97
2019-03-24T12:04:22.060Z,12.69
2019-03-24T12:06:52.962Z,12.82
2019-03-24T12:09:25.471Z,12.43
2019-03-24T12:11:56.362Z,11.95
2019-03-24T12:14:32.497Z,11.89
2019-03-24T12:17:04.951Z,11.94
2019-03-24T12:19:39.153Z,12.34
2019-03-24T12:22:09.981Z,12.44
2019-03-24T12:24:42.031Z,12.11
2019-03-24T12:27:18.821Z,12.14
2019-03-24T12:29:50.165Z,12.53
2019-03-24T12:32:25.251Z,12.20
2019-03-24T12:34:56.203Z,11.72
2019-03-24T12:37:30.843Z,11.86
2019-03-24T12:40:35.743Z,11.96
2019-03-24T12:43:19.085Z,11.89
2019-03-24T12:45:46.384Z,11.61
2019-03-24T12:48:21.027Z,11.74
2019-03-24T12:51:00.617Z,11.93
2019-03-24T12:53:31.343Z,11.83
2019-03-24T12:56:18.478Z,11.68
2019-03-24T12:59:01.918Z,11.61
2019-03-24T13:01:36.772Z,11.42
2019-03-24T13:04:11.458Z,11.51
2019-03-24T13:06:44.039Z,11.66
2019-03-24T13:09:15.244Z,11.62
2019-03-24T13:11:46.619Z,11.78
2019-03-24T13:14:18.775Z,11.83
2019-03-24T13:16:50.704Z,11.65
2019-03-24T13:19:22.934Z,11.36
2019-03-24T13:22:20.320Z,11.60
2019-03-24T13:25:00.343Z,11.17
2019-03-24T13:28:00.700Z,11.33
2019-03-24T13:30:41.483Z,11.60
2019-03-24T13:33:12.812Z,11.30
2019-03-24T13:35:43.926Z,11.26
2019-03-24T13:38:15.174Z,11.06
2019-03-24T13:40:45.924Z,11.25
2019-03-24T13:43:16.872Z,11.22
2019-03-24T13:45:47.632Z,11.35
2019-03-24T13:48:18.465Z,11.52
2019-03-24T13:50:49.211Z,11.17
2019-03-24T13:53:21.731Z,11.08
2019-03-24T13:55:52.472Z,11.29
2019-03-24T13:58:23.379Z,11.28
2019-03-24T14:00:54.128Z,11.14
2019-03-24T14:03:24.902Z,11.38
2019-03-24T14:05:55.694Z,11.30
2019-03-24T14:08:26.650Z,11.61
2019-03-24T14:10:57.545Z,11.42
2019-03-24T14:13:28.556Z,11.44
2019-03-24T14:15:59.290Z,11.43
2019-03-24T14:18:30.232Z,11.43
2019-03-24T14:21:01.002Z,11.13
2019-03-24T14:23:31.898Z,11.43
2019-03-24T14:26:02.865Z,11.41
2019-03-24T14:28:33.929Z,11.38
2019-03-24T14:31:04.982Z,11.13
2019-03-24T14:33:35.782Z,11.55
2019-03-24T14:36:06.606Z,11.62
2019-03-24T14:38:37.496Z,11.35
2019-03-24T14:41:08.576Z,11.40
2019-03-24T14:43:39.463Z,11.42
2019-03-24T14:46:10.250Z,11.41
2019-03-24T14:48:41.103Z,11.29
2019-03-24T14:51:12.024Z,11.55
2019-03-24T14:53:43.142Z,11.58
2019-03-24T14:56:13.902Z,11.36
2019-03-24T14:58:45.023Z,11.46
2019-03-24T15:01:17.416Z,11.48
2019-03-24T15:03:48.225Z,11.64
2019-03-24T15:06:20.625Z,11.46
2019-03-24T15:08:51.694Z,11.29
2019-03-24T15:11:23.301Z,11.33
2019-03-24T15:13:54.441Z,11.30
2019-03-24T15:16:28.526Z,11.41
2019-03-24T15:19:00.173Z,11.58
2019-03-24T15:21:31.433Z,11.12
2019-03-24T15:24:02.507Z,11.24
2019-03-24T15:26:37.300Z,11.46
2019-03-24T15:29:09.268Z,11.12
2019-03-24T15:31:40.392Z,11.42
2019-03-24T15:34:11.266Z,10.91
2019-03-24T15:36:42.363Z,11.18
2019-03-24T15:39:13.497Z,10.99
2019-03-24T15:41:44.322Z,11.34
2019-03-24T15:44:15.922Z,11.20
2019-03-24T15:46:49.262Z,11.30
2019-03-24T15:49:20.278Z,10.97
2019-03-24T15:51:51.034Z,10.88
2019-03-24T15:54:21.865Z,10.88
2019-03-24T15:56:52.687Z,11.02
2019-03-24T15:59:23.936Z,11.11
2019-03-24T16:01:55.001Z,11.19
2019-03-24T16:04:26.190Z,10.95
2019-03-24T16:06:58.142Z,11.20
2019-03-24T16:09:30.688Z,11.02
2019-03-24T16:12:01.502Z,11.11
2019-03-24T16:14:34.950Z,11.19
2019-03-24T16:17:06.420Z,10.95
2019-03-24T16:19:39.674Z,11.01
2019-03-24T16:22:11.503Z,11.02
2019-03-24T16:24:42.721Z,10.70
2019-03-24T16:27:13.500Z,10.67
2019-03-24T16:29:44.501Z,10.65
2019-03-24T16:32:15.543Z,10.50
2019-03-24T16:34:46.431Z,10.61
2019-03-24T16:37:17.339Z,10.40
2019-03-24T16:39:48.248Z,10.66
2019-03-24T16:42:19.031Z,10.57
2019-03-24T16:44:49.905Z,10.69
2019-03-24T16:47:20.693Z,10.54
2019-03-24T16:49:51.637Z,10.29
2019-03-24T16:52:23.700Z,10.24
2019-03-24T16:55:06.243Z,10.25
2019-03-24T16:57:36.981Z,10.32
2019-03-24T17:00:08.343Z,10.05
2019-03-24T17:02:39.225Z,10.24
2019-03-24T17:05:10.239Z,10.12
2019-03-24T17:07:41.024Z,10.22
2019-03-24T17:10:12.436Z,10.16
2019-03-24T17:12:43.240Z,10.49
2019-03-24T17:15:14.451Z,10.05
2019-03-24T17:17:45.393Z,10.04
2019-03-24T17:20:16.478Z,10.09
2019-03-24T17:22:47.490Z,9.93
2019-03-24T17:25:18.324Z,9.91
2019-03-24T17:27:49.204Z,10.25
2019-03-24T17:30:20.493Z,9.93
2019-03-24T17:32:51.586Z,9.95
2019-03-24T17:35:22.359Z,9.84
2019-03-24T17:37:53.126Z,9.80
2019-03-24T17:40:23.991Z,9.94
2019-03-24T17:42:54.843Z,9.92
2019-03-24T17:45:25.678Z,9.73
2019-03-24T17:47:56.460Z,9.55
2019-03-24T17:50:27.382Z,9.64
2019-03-24T17:52:58.283Z,9.51
2019-03-24T17:55:31.048Z,9.34
2019-03-24T17:58:01.669Z,9.63
2019-03-24T18:00:45.013Z,9.45
2019-03-24T18:03:15.776Z,9.48
2019-03-24T18:05:46.828Z,9.46
2019-03-24T18:08:17.560Z,9.26
2019-03-24T18:10:48.368Z,9.27
2019-03-24T18:13:19.136Z,9.53
2019-03-24T18:15:50.193Z,9.31
2019-03-24T18:18:20.970Z,9.27
2019-03-24T18:20:52.041Z,9.05
2019-03-24T18:23:22.781Z,9.01
2019-03-24T18:25:53.592Z,9.06
2019-03-24T18:28:24.345Z,9.07
2019-03-24T18:30:55.268Z,8.89
2019-03-24T18:33:26.602Z,8.91
2019-03-24T18:35:58.474Z,8.88
2019-03-24T18:38:29.260Z,8.81
2019-03-24T18:41:00.184Z,8.59
2019-03-24T18:43:30.943Z,8.70
2019-03-24T18:46:01.999Z,8.65
2019-03-24T18:48:32.752Z,8.53
2019-03-24T18:51:03.680Z,8.72
2019-03-24T18:53:34.761Z,8.60
2019-03-24T18:56:05.571Z,8.56
2019-03-24T18:58:36.366Z,8.60
2019-03-24T19:01:07.257Z,8.48
2019-03-24T19:03:38.032Z,8.49
2019-03-24T19:06:08.870Z,8.52
2019-03-24T19:08:39.730Z,8.38
2019-03-24T19:11:10.617Z,8.57
2019-03-24T19:13:41.495Z,8.46
2019-03-24T19:16:12.395Z,8.74
2019-03-24T19:18:43.235Z,8.44
2019-03-24T19:21:14.093Z,8.32
2019-03-24T19:23:44.889Z,8.23
2019-03-24T19:26:15.671Z,8.21
2019-03-24T19:28:46.448Z,8.17
2019-03-24T19:31:17.380Z,8.21
2019-03-24T19:33:48.314Z,8.18
2019-03-24T19:36:19.168Z,8.19
2019-03-24T19:38:51.009Z,8.07
2019-03-24T19:41:21.887Z,7.89
2019-03-24T19:43:52.661Z,7.86
2019-03-24T19:46:23.593Z,7.98
2019-03-24T19:48:54.852Z,7.95
2019-03-24T19:51:25.762Z,7.81
2019-03-24T19:53:56.553Z,7.92
2019-03-24T19:56:27.514Z,7.97
2019-03-24T19:58:58.284Z,8.02
2019-03-24T20:01:29.274Z,8.17
2019-03-24T20:04:00.053Z,8.16
2019-03-24T20:06:30.889Z,7.92
2019-03-24T20:09:02.132Z,8.11
2019-03-24T20:11:34.790Z,7.94
2019-03-24T20:14:05.671Z,7.99
2019-03-24T20:16:36.642Z,7.97
2019-03-24T20:19:07.474Z,7.76
2019-03-24T20:21:39.569Z,7.79
2019-03-24T20:24:10.394Z,7.78
2019-03-24T20:26:41.308Z,7.85
2019-03-24T20:29:12.109Z,7.69
2019-03-24T20:31:43.057Z,7.90
2019-03-24T20:34:14.109Z,7.81
2019-03-24T20:36:44.957Z,7.81
2019-03-24T20:39:15.785Z,7.74
2019-03-24T20:41:46.648Z,7.99
2019-03-24T20:44:17.399Z,7.83
2019-03-24T20:46:48.474Z,8.09
2019-03-24T20:49:19.368Z,8.20
2019-03-24T20:51:50.220Z,8.03
2019-03-24T20:54:21.174Z,7.69
2019-03-24T20:56:52.047Z,7.81
2019-03-24T20:59:22.819Z,7.65
2019-03-24T21:01:54.125Z,7.64
2019-03-24T21:04:24.972Z,7.74
2019-03-24T21:06:55.805Z,7.70
2019-03-24T21:09:26.680Z,7.46
2019-03-24T21:11:58.489Z,7.73
2019-03-24T21:14:30.179Z,7.57
2019-03-24T21:17:01.059Z,7.35
2019-03-24T21:19:31.883Z,7.42
2019-03-24T21:22:02.803Z,7.45
2019-03-24T21:24:33.668Z,7.41
2019-03-24T21:27:07.028Z,7.37
2019-03-24T21:29:37.780Z,7.38
2019-03-24T21:32:08.818Z,7.23
2019-03-24T21:34:40.036Z,7.26
2019-03-24T21:37:10.911Z,7.35
2019-03-24T21:39:41.701Z,7.24
2019-03-24T21:42:12.625Z,7.18
2019-03-24T21:44:44.816Z,7.26
2019-03-24T21:47:16.002Z,7.19
2019-03-24T21:49:46.802Z,7.18
2019-03-24T21:52:17.604Z,7.18
2019-03-24T21:54:48.412Z,7.20
2019-03-24T21:57:19.287Z,7.08
2019-03-24T21:59:50.056Z,7.09
2019-03-24T22:02:21.023Z,7.19
2019-03-24T22:04:51.803Z,7.15
2019-03-24T22:07:22.672Z,7.21
2019-03-24T22:09:53.490Z,7.25
2019-03-24T22:12:24.324Z,7.36
2019-03-24T22:14:57.232Z,7.22
2019-03-24T22:17:28.155Z,7.30
2019-03-24T22:19:58.994Z,7.28
2019-03-24T22:22:29.851Z,7.45
2019-03-24T22:25:00.701Z,7.31
2019-03-24T22:27:31.554Z,7.37
2019-03-24T22:30:02.370Z,7.34
2019-03-24T22:32:34.312Z,7.24
2019-03-24T22:35:05.192Z,7.39
2019-03-24T22:37:36.031Z,7.51
2019-03-24T22:40:08.187Z,7.45
2019-03-24T22:42:38.973Z,7.49
2019-03-24T22:45:10.845Z,7.38
2019-03-24T22:47:41.934Z,7.57
2019-03-24T22:50:12.882Z,7.19
2019-03-24T22:52:43.715Z,7.20
2019-03-24T22:55:14.774Z,7.10
2019-03-24T22:57:45.783Z,7.06
2019-03-24T23:00:21.212Z,7.10
2019-03-24T23:02:53.908Z,6.91
2019-03-24T23:05:24.746Z,7.01
2019-03-24T23:07:55.620Z,6.90
2019-03-24T23:10:26.483Z,6.80
2019-03-24T23:12:57.366Z,6.81
2019-03-24T23:15:28.279Z,6.75
2019-03-24T23:17:59.278Z,6.83
2019-03-24T23:20:30.061Z,6.70
2019-03-24T23:23:00.922Z,6.83
2019-03-24T23:25:31.870Z,6.74
2019-03-24T23:28:02.803Z,6.67
2019-03-24T23:30:33.585Z,6.75
2019-03-24T23:33:04.773Z,6.76
2019-03-24T23:35:36.325Z,6.67
2019-03-24T23:38:07.259Z,6.59
2019-03-24T23:40:38.128Z,6.62
2019-03-24T23:43:08.969Z,6.60
2019-03-24T23:45:39.837Z,6.55
2019-03-24T23:48:11.894Z,6.55
2019-03-24T23:50:42.664Z,6.57
2019-03-24T23:53:13.505Z,6.75
2019-03-24T23:55:44.289Z,6.69
2019-03-24T23:58:15.319Z,6.53
